Terminal Aerodrome Forecast
Issued by NWS

Home | Current Version | Previous Version | Text Only | Print | Product List | Glossary Off
Versions: 1 2 3 4 5 6 7 8 9 10 11 12 13 14 15 16 17 18 19 20 21 22 23 24 25 26 27

000
FTUS43 KLOT 241743
TAFGYY
TAF
KGYY 241743Z 2418/2518 28015G23KT P6SM BKN050
     FM250200 27008KT P6SM SCT050 BKN070
     FM251500 28013G20KT P6SM SCT035 BKN045=

USA.gov is the U.S. government's official web portal to all federal, state and local government web resources and services.